sensor_id;sensor_type;location;lat;lon;timestamp;temperature;humidity
18252;DHT22;26917;52.328;20.878;2022-08-01T00:01:30;14.50;99.90
18252;DHT22;26917;52.328;20.878;2022-08-01T00:03:59;14.40;99.90
18252;DHT22;26917;52.328;20.878;2022-08-01T00:06:27;14.50;99.90
18252;DHT22;26917;52.328;20.878;2022-08-01T00:08:56;14.50;99.90
18252;DHT22;26917;52.328;20.878;2022-08-01T00:11:24;14.50;99.90
18252;DHT22;26917;52.328;20.878;2022-08-01T00:13:53;14.50;99.90
18252;DHT22;26917;52.328;20.878;2022-08-01T00:16:21;14.50;99.90
18252;DHT22;26917;52.328;20.878;2022-08-01T00:18:52;14.50;99.90
18252;DHT22;26917;52.328;20.878;2022-08-01T00:21:21;14.50;99.90
18252;DHT22;26917;52.328;20.878;2022-08-01T00:23:49;14.40;99.90
18252;DHT22;26917;52.328;20.878;2022-08-01T00:26:19;14.40;99.90
18252;DHT22;26917;52.328;20.878;2022-08-01T00:28:48;14.30;99.90
18252;DHT22;26917;52.328;20.878;2022-08-01T00:31:16;14.30;99.90
18252;DHT22;26917;52.328;20.878;2022-08-01T00:33:47;14.30;99.90
18252;DHT22;26917;52.328;20.878;2022-08-01T00:36:18;14.40;99.90
18252;DHT22;26917;52.328;20.878;2022-08-01T00:38:46;14.30;99.90
18252;DHT22;26917;52.328;20.878;2022-08-01T00:41:14;14.30;99.90
18252;DHT22;26917;52.328;20.878;2022-08-01T00:43:43;14.30;99.90
18252;DHT22;26917;52.328;20.878;2022-08-01T00:46:11;14.30;99.90
18252;DHT22;26917;52.328;20.878;2022-08-01T00:48:40;14.20;99.90
18252;DHT22;26917;52.328;20.878;2022-08-01T00:51:08;14.20;99.90
18252;DHT22;26917;52.328;20.878;2022-08-01T00:53:39;14.30;99.90
18252;DHT22;26917;52.328;20.878;2022-08-01T00:56:19;14.20;99.90
18252;DHT22;26917;52.328;20.878;2022-08-01T00:58:47;14.20;99.90
18252;DHT22;26917;52.328;20.878;2022-08-01T01:01:16;14.20;99.90
18252;DHT22;26917;52.328;20.878;2022-08-01T01:03:45;14.20;99.90
18252;DHT22;26917;52.328;20.878;2022-08-01T01:06:44;14.20;99.90
18252;DHT22;26917;52.328;20.878;2022-08-01T01:09:33;14.10;99.90
18252;DHT22;26917;52.328;20.878;2022-08-01T01:12:13;14.10;99.90
18252;DHT22;26917;52.328;20.878;2022-08-01T01:14:49;14.10;99.90
18252;DHT22;26917;52.328;20.878;2022-08-01T01:17:37;14.10;99.90
18252;DHT22;26917;52.328;20.878;2022-08-01T01:20:18;14.10;99.90
18252;DHT22;26917;52.328;20.878;2022-08-01T01:23:05;14.10;99.90
18252;DHT22;26917;52.328;20.878;2022-08-01T01:26:17;14.00;99.90
18252;DHT22;26917;52.328;20.878;2022-08-01T01:29:00;14.00;99.90
18252;DHT22;26917;52.328;20.878;2022-08-01T01:31:32;14.00;99.90
18252;DHT22;26917;52.328;20.878;2022-08-01T01:34:03;14.00;99.90
18252;DHT22;26917;52.328;20.878;2022-08-01T01:36:32;14.00;99.90
18252;DHT22;26917;52.328;20.878;2022-08-01T01:39:02;14.00;99.90
18252;DHT22;26917;52.328;20.878;2022-08-01T01:41:31;13.90;99.90
18252;DHT22;26917;52.328;20.878;2022-08-01T01:44:02;13.90;99.90
18252;DHT22;26917;52.328;20.878;2022-08-01T01:46:31;13.90;99.90
18252;DHT22;26917;52.328;20.878;2022-08-01T01:49:01;13.80;99.90
18252;DHT22;26917;52.328;20.878;2022-08-01T01:51:31;13.80;99.90
18252;DHT22;26917;52.328;20.878;2022-08-01T01:54:01;13.80;99.90
18252;DHT22;26917;52.328;20.878;2022-08-01T01:56:30;13.80;99.90
18252;DHT22;26917;52.328;20.878;2022-08-01T01:59:02;13.80;99.90
18252;DHT22;26917;52.328;20.878;2022-08-01T02:01:32;13.80;99.90
18252;DHT22;26917;52.328;20.878;2022-08-01T02:04:23;13.80;99.90
18252;DHT22;26917;52.328;20.878;2022-08-01T02:06:53;13.70;99.90
18252;DHT22;26917;52.328;20.878;2022-08-01T02:09:23;13.60;99.90
18252;DHT22;26917;52.328;20.878;2022-08-01T02:11:53;13.60;99.90
18252;DHT22;26917;52.328;20.878;2022-08-01T02:14:37;13.50;99.90
18252;DHT22;26917;52.328;20.878;2022-08-01T02:17:09;13.50;99.90
18252;DHT22;26917;52.328;20.878;2022-08-01T02:19:38;13.50;99.90
18252;DHT22;26917;52.328;20.878;2022-08-01T02:22:10;13.40;99.90
18252;DHT22;26917;52.328;20.878;2022-08-01T02:24:42;13.40;99.90
18252;DHT22;26917;52.328;20.878;2022-08-01T02:27:15;13.30;99.90
18252;DHT22;26917;52.328;20.878;2022-08-01T02:29:52;13.30;99.90
18252;DHT22;26917;52.328;20.878;2022-08-01T02:32:27;13.20;99.90
18252;DHT22;26917;52.328;20.878;2022-08-01T02:35:00;13.10;99.90
18252;DHT22;26917;52.328;20.878;2022-08-01T02:37:32;13.00;99.90
18252;DHT22;26917;52.328;20.878;2022-08-01T02:40:02;13.00;99.90
18252;DHT22;26917;52.328;20.878;2022-08-01T02:42:32;12.90;99.90
18252;DHT22;26917;52.328;20.878;2022-08-01T02:45:05;12.90;99.90
18252;DHT22;26917;52.328;20.878;2022-08-01T02:47:36;12.90;99.90
18252;DHT22;26917;52.328;20.878;2022-08-01T02:50:06;12.90;99.90
18252;DHT22;26917;52.328;20.878;2022-08-01T02:52:37;12.80;99.90
18252;DHT22;26917;52.328;20.878;2022-08-01T02:55:08;12.80;99.90
18252;DHT22;26917;52.328;20.878;2022-08-01T02:57:38;12.80;99.90
18252;DHT22;26917;52.328;20.878;2022-08-01T03:00:20;12.70;99.90
18252;DHT22;26917;52.328;20.878;2022-08-01T03:02:52;12.70;99.90
18252;DHT22;26917;52.328;20.878;2022-08-01T03:05:23;12.70;99.90
18252;DHT22;26917;52.328;20.878;2022-08-01T03:07:53;12.70;99.90
18252;DHT22;26917;52.328;20.878;2022-08-01T03:10:29;12.70;99.90
18252;DHT22;26917;52.328;20.878;2022-08-01T03:12:59;12.60;99.90
18252;DHT22;26917;52.328;20.878;2022-08-01T03:15:31;12.60;99.90
18252;DHT22;26917;52.328;20.878;2022-08-01T03:18:02;12.70;99.90
18252;DHT22;26917;52.328;20.878;2022-08-01T03:20:33;12.60;99.90
18252;DHT22;26917;52.328;20.878;2022-08-01T03:23:03;12.60;99.90
18252;DHT22;26917;52.328;20.878;2022-08-01T03:25:34;12.60;99.90
18252;DHT22;26917;52.328;20.878;2022-08-01T03:28:04;12.60;99.90
18252;DHT22;26917;52.328;20.878;2022-08-01T03:30:37;12.60;99.90
18252;DHT22;26917;52.328;20.878;2022-08-01T03:33:06;12.70;99.90
18252;DHT22;26917;52.328;20.878;2022-08-01T03:35:37;12.70;99.90
18252;DHT22;26917;52.328;20.878;2022-08-01T03:38:08;12.70;99.90
18252;DHT22;26917;52.328;20.878;2022-08-01T03:40:47;12.80;99.90
18252;DHT22;26917;52.328;20.878;2022-08-01T03:43:20;12.80;99.90
18252;DHT22;26917;52.328;20.878;2022-08-01T03:45:52;12.90;99.90
18252;DHT22;26917;52.328;20.878;2022-08-01T03:48:27;12.90;99.90
18252;DHT22;26917;52.328;20.878;2022-08-01T03:50:58;12.80;99.90
18252;DHT22;26917;52.328;20.878;2022-08-01T03:53:30;12.80;99.90
18252;DHT22;26917;52.328;20.878;2022-08-01T03:56:00;12.90;99.90
18252;DHT22;26917;52.328;20.878;2022-08-01T03:58:30;12.80;99.90
18252;DHT22;26917;52.328;20.878;2022-08-01T04:01:01;12.90;99.90
18252;DHT22;26917;52.328;20.878;2022-08-01T04:03:31;12.90;99.90
18252;DHT22;26917;52.328;20.878;2022-08-01T04:06:09;13.00;99.90
18252;DHT22;26917;52.328;20.878;2022-08-01T04:08:38;13.00;99.90
18252;DHT22;26917;52.328;20.878;2022-08-01T04:11:08;12.80;99.90
18252;DHT22;26917;52.328;20.878;2022-08-01T04:13:36;13.10;99.90
18252;DHT22;26917;52.328;20.878;2022-08-01T04:16:06;13.10;99.90
18252;DHT22;26917;52.328;20.878;2022-08-01T04:18:35;13.10;99.90
18252;DHT22;26917;52.328;20.878;2022-08-01T04:21:03;13.20;99.90
18252;DHT22;26917;52.328;20.878;2022-08-01T04:23:34;13.20;99.90
18252;DHT22;26917;52.328;20.878;2022-08-01T04:26:03;13.20;99.90
18252;DHT22;26917;52.328;20.878;2022-08-01T04:28:34;13.30;99.90
18252;DHT22;26917;52.328;20.878;2022-08-01T04:31:07;13.30;99.90
18252;DHT22;26917;52.328;20.878;2022-08-01T04:33:38;13.30;99.90
18252;DHT22;26917;52.328;20.878;2022-08-01T04:36:10;13.30;99.90
18252;DHT22;26917;52.328;20.878;2022-08-01T04:38:42;13.30;99.90
18252;DHT22;26917;52.328;20.878;2022-08-01T04:41:13;13.30;99.90
18252;DHT22;26917;52.328;20.878;2022-08-01T04:43:42;13.30;99.90
18252;DHT22;26917;52.328;20.878;2022-08-01T04:46:12;13.40;99.90
18252;DHT22;26917;52.328;20.878;2022-08-01T04:48:41;13.40;99.90
18252;DHT22;26917;52.328;20.878;2022-08-01T04:51:12;13.40;99.90
18252;DHT22;26917;52.328;20.878;2022-08-01T04:53:42;13.40;99.90
18252;DHT22;26917;52.328;20.878;2022-08-01T04:56:13;13.40;99.90
18252;DHT22;26917;52.328;20.878;2022-08-01T04:58:41;13.40;99.90
18252;DHT22;26917;52.328;20.878;2022-08-01T05:01:12;13.30;99.90
18252;DHT22;26917;52.328;20.878;2022-08-01T05:03:41;13.30;99.90
18252;DHT22;26917;52.328;20.878;2022-08-01T05:06:10;13.30;99.90
18252;DHT22;26917;52.328;20.878;2022-08-01T05:08:39;13.30;99.90
18252;DHT22;26917;52.328;20.878;2022-08-01T05:11:08;13.30;99.90
18252;DHT22;26917;52.328;20.878;2022-08-01T05:13:38;13.30;99.90
18252;DHT22;26917;52.328;20.878;2022-08-01T05:16:07;13.30;99.90
18252;DHT22;26917;52.328;20.878;2022-08-01T05:18:36;13.40;99.90
18252;DHT22;26917;52.328;20.878;2022-08-01T05:21:06;13.40;99.90
18252;DHT22;26917;52.328;20.878;2022-08-01T05:23:34;13.40;99.90
18252;DHT22;26917;52.328;20.878;2022-08-01T05:26:09;13.50;99.90
18252;DHT22;26917;52.328;20.878;2022-08-01T05:28:40;13.50;99.90
18252;DHT22;26917;52.328;20.878;2022-08-01T05:31:09;13.60;99.90
18252;DHT22;26917;52.328;20.878;2022-08-01T05:33:39;13.60;99.90
18252;DHT22;26917;52.328;20.878;2022-08-01T05:36:07;13.70;99.90
18252;DHT22;26917;52.328;20.878;2022-08-01T05:38:40;13.70;99.90
18252;DHT22;26917;52.328;20.878;2022-08-01T05:41:08;13.80;99.90
18252;DHT22;26917;52.328;20.878;2022-08-01T05:43:38;13.80;99.90
18252;DHT22;26917;52.328;20.878;2022-08-01T05:46:06;13.90;99.90
18252;DHT22;26917;52.328;20.878;2022-08-01T05:48:34;13.90;99.90
18252;DHT22;26917;52.328;20.878;2022-08-01T05:51:04;13.90;99.90
18252;DHT22;26917;52.328;20.878;2022-08-01T05:53:32;14.00;99.90
18252;DHT22;26917;52.328;20.878;2022-08-01T05:56:01;14.10;99.90
18252;DHT22;26917;52.328;20.878;2022-08-01T05:58:29;14.20;99.90
18252;DHT22;26917;52.328;20.878;2022-08-01T06:00:58;14.20;99.90
18252;DHT22;26917;52.328;20.878;2022-08-01T06:03:27;14.20;99.90
18252;DHT22;26917;52.328;20.878;2022-08-01T06:05:58;14.20;99.90
18252;DHT22;26917;52.328;20.878;2022-08-01T06:08:28;14.20;99.90
18252;DHT22;26917;52.328;20.878;2022-08-01T06:11:03;14.20;99.90
18252;DHT22;26917;52.328;20.878;2022-08-01T06:13:31;14.20;99.90
18252;DHT22;26917;52.328;20.878;2022-08-01T06:16:14;14.30;99.90
18252;DHT22;26917;52.328;20.878;2022-08-01T06:18:42;14.30;99.90
18252;DHT22;26917;52.328;20.878;2022-08-01T06:21:11;14.30;99.90
18252;DHT22;26917;52.328;20.878;2022-08-01T06:23:41;14.40;99.90
18252;DHT22;26917;52.328;20.878;2022-08-01T06:26:09;14.50;99.90
18252;DHT22;26917;52.328;20.878;2022-08-01T06:29:00;14.70;99.90
18252;DHT22;26917;52.328;20.878;2022-08-01T06:31:30;14.90;99.90
18252;DHT22;26917;52.328;20.878;2022-08-01T06:34:47;14.90;99.90
18252;DHT22;26917;52.328;20.878;2022-08-01T06:37:16;14.90;99.90
18252;DHT22;26917;52.328;20.878;2022-08-01T06:57:59;15.00;99.90
18252;DHT22;26917;52.328;20.878;2022-08-01T07:00:27;15.20;99.90
18252;DHT22;26917;52.328;20.878;2022-08-01T07:02:57;15.20;99.90
18252;DHT22;26917;52.328;20.878;2022-08-01T07:05:26;15.30;99.90
18252;DHT22;26917;52.328;20.878;2022-08-01T07:07:57;15.30;99.90
18252;DHT22;26917;52.328;20.878;2022-08-01T07:10:26;15.40;99.90
18252;DHT22;26917;52.328;20.878;2022-08-01T07:12:54;15.50;99.90
18252;DHT22;26917;52.328;20.878;2022-08-01T07:15:24;15.50;99.90
18252;DHT22;26917;52.328;20.878;2022-08-01T07:17:53;15.60;99.90
18252;DHT22;26917;52.328;20.878;2022-08-01T07:20:22;15.70;99.90
18252;DHT22;26917;52.328;20.878;2022-08-01T07:23:18;15.90;99.90
18252;DHT22;26917;52.328;20.878;2022-08-01T07:25:48;16.20;99.90
18252;DHT22;26917;52.328;20.878;2022-08-01T07:28:23;16.40;99.90
18252;DHT22;26917;52.328;20.878;2022-08-01T07:30:53;16.60;99.90
18252;DHT22;26917;52.328;20.878;2022-08-01T07:33:22;16.60;99.90
18252;DHT22;26917;52.328;20.878;2022-08-01T07:35:50;16.50;99.90
18252;DHT22;26917;52.328;20.878;2022-08-01T07:38:18;16.60;99.90
18252;DHT22;26917;52.328;20.878;2022-08-01T07:40:47;16.80;99.90
18252;DHT22;26917;52.328;20.878;2022-08-01T07:43:15;17.10;99.90
18252;DHT22;26917;52.328;20.878;2022-08-01T07:45:44;17.40;99.90
18252;DHT22;26917;52.328;20.878;2022-08-01T07:48:13;17.40;99.90
18252;DHT22;26917;52.328;20.878;2022-08-01T07:50:42;17.50;99.90
18252;DHT22;26917;52.328;20.878;2022-08-01T07:53:10;17.50;99.90
18252;DHT22;26917;52.328;20.878;2022-08-01T07:55:38;17.50;99.90
18252;DHT22;26917;52.328;20.878;2022-08-01T07:58:07;17.40;99.90
18252;DHT22;26917;52.328;20.878;2022-08-01T08:00:35;17.30;99.90
18252;DHT22;26917;52.328;20.878;2022-08-01T08:03:04;17.30;99.90
18252;DHT22;26917;52.328;20.878;2022-08-01T08:05:34;17.20;99.90
18252;DHT22;26917;52.328;20.878;2022-08-01T08:08:23;17.20;99.90
18252;DHT22;26917;52.328;20.878;2022-08-01T08:10:51;17.10;99.90
18252;DHT22;26917;52.328;20.878;2022-08-01T08:13:20;17.00;99.90
18252;DHT22;26917;52.328;20.878;2022-08-01T08:15:48;17.00;99.90
18252;DHT22;26917;52.328;20.878;2022-08-01T08:18:17;17.00;99.90
18252;DHT22;26917;52.328;20.878;2022-08-01T08:21:02;17.00;99.90
18252;DHT22;26917;52.328;20.878;2022-08-01T08:23:35;17.00;99.90
18252;DHT22;26917;52.328;20.878;2022-08-01T08:26:20;17.00;99.90
18252;DHT22;26917;52.328;20.878;2022-08-01T08:28:50;17.00;99.90
18252;DHT22;26917;52.328;20.878;2022-08-01T08:31:19;17.00;99.90
18252;DHT22;26917;52.328;20.878;2022-08-01T08:34:08;17.00;99.90
18252;DHT22;26917;52.328;20.878;2022-08-01T08:36:46;17.10;99.90
18252;DHT22;26917;52.328;20.878;2022-08-01T08:39:16;17.20;99.90
18252;DHT22;26917;52.328;20.878;2022-08-01T08:41:47;17.20;99.90
18252;DHT22;26917;52.328;20.878;2022-08-01T08:44:18;17.20;99.90
18252;DHT22;26917;52.328;20.878;2022-08-01T08:46:49;17.30;99.90
18252;DHT22;26917;52.328;20.878;2022-08-01T08:49:21;17.40;99.90
18252;DHT22;26917;52.328;20.878;2022-08-01T08:52:12;17.50;99.90
18252;DHT22;26917;52.328;20.878;2022-08-01T08:54:43;17.60;99.90
18252;DHT22;26917;52.328;20.878;2022-08-01T08:57:14;17.80;99.90
18252;DHT22;26917;52.328;20.878;2022-08-01T08:59:44;17.90;99.90
18252;DHT22;26917;52.328;20.878;2022-08-01T09:02:13;18.10;99.90
18252;DHT22;26917;52.328;20.878;2022-08-01T09:04:43;18.70;99.90
18252;DHT22;26917;52.328;20.878;2022-08-01T09:07:14;19.50;99.90
18252;DHT22;26917;52.328;20.878;2022-08-01T09:09:42;20.20;99.90
18252;DHT22;26917;52.328;20.878;2022-08-01T09:12:16;20.90;99.90
18252;DHT22;26917;52.328;20.878;2022-08-01T09:14:46;21.30;99.90
18252;DHT22;26917;52.328;20.878;2022-08-01T09:17:16;21.60;99.90
18252;DHT22;26917;52.328;20.878;2022-08-01T09:19:47;21.80;99.90
18252;DHT22;26917;52.328;20.878;2022-08-01T09:22:39;22.20;99.90
18252;DHT22;26917;52.328;20.878;2022-08-01T09:25:13;22.80;99.90
18252;DHT22;26917;52.328;20.878;2022-08-01T09:27:42;23.50;99.90
18252;DHT22;26917;52.328;20.878;2022-08-01T09:32:56;25.10;99.90
18252;DHT22;26917;52.328;20.878;2022-08-01T09:35:27;25.70;99.90
18252;DHT22;26917;52.328;20.878;2022-08-01T09:38:17;26.10;99.90
18252;DHT22;26917;52.328;20.878;2022-08-01T09:40:47;25.80;99.90
18252;DHT22;26917;52.328;20.878;2022-08-01T09:43:29;25.20;99.90
18252;DHT22;26917;52.328;20.878;2022-08-01T09:46:02;24.20;99.90
18252;DHT22;26917;52.328;20.878;2022-08-01T09:48:38;23.40;99.90
18252;DHT22;26917;52.328;20.878;2022-08-01T09:51:21;22.70;99.90
18252;DHT22;26917;52.328;20.878;2022-08-01T09:54:36;22.20;99.90
18252;DHT22;26917;52.328;20.878;2022-08-01T09:57:12;21.70;99.90
18252;DHT22;26917;52.328;20.878;2022-08-01T09:59:43;21.40;99.90
18252;DHT22;26917;52.328;20.878;2022-08-01T10:02:31;21.20;99.90
18252;DHT22;26917;52.328;20.878;2022-08-01T10:05:00;21.20;99.90
18252;DHT22;26917;52.328;20.878;2022-08-01T10:07:35;21.30;99.90
18252;DHT22;26917;52.328;20.878;2022-08-01T10:10:28;21.80;99.90
18252;DHT22;26917;52.328;20.878;2022-08-01T10:12:59;22.70;99.90
18252;DHT22;26917;52.328;20.878;2022-08-01T10:15:29;23.80;99.90
18252;DHT22;26917;52.328;20.878;2022-08-01T10:18:06;24.40;99.90
18252;DHT22;26917;52.328;20.878;2022-08-01T10:20:52;24.70;99.90
18252;DHT22;26917;52.328;20.878;2022-08-01T10:23:24;25.00;99.90
18252;DHT22;26917;52.328;20.878;2022-08-01T10:26:10;25.60;99.90
18252;DHT22;26917;52.328;20.878;2022-08-01T10:28:41;26.30;99.90
18252;DHT22;26917;52.328;20.878;2022-08-01T10:31:12;27.10;99.90
18252;DHT22;26917;52.328;20.878;2022-08-01T10:33:43;27.90;99.90
18252;DHT22;26917;52.328;20.878;2022-08-01T10:36:19;28.70;99.90
18252;DHT22;26917;52.328;20.878;2022-08-01T10:38:52;29.30;99.20
18252;DHT22;26917;52.328;20.878;2022-08-01T10:41:52;29.60;98.60
18252;DHT22;26917;52.328;20.878;2022-08-01T10:44:21;29.30;97.60
18252;DHT22;26917;52.328;20.878;2022-08-01T10:46:54;28.40;98.00
18252;DHT22;26917;52.328;20.878;2022-08-01T10:49:26;27.80;95.60
18252;DHT22;26917;52.328;20.878;2022-08-01T10:51:56;27.60;99.90
18252;DHT22;26917;52.328;20.878;2022-08-01T10:54:25;27.80;99.90
18252;DHT22;26917;52.328;20.878;2022-08-01T10:56:59;28.60;99.90
18252;DHT22;26917;52.328;20.878;2022-08-01T10:59:29;29.50;98.50
18252;DHT22;26917;52.328;20.878;2022-08-01T11:02:29;29.60;90.10
18252;DHT22;26917;52.328;20.878;2022-08-01T11:05:02;29.20;93.40
18252;DHT22;26917;52.328;20.878;2022-08-01T11:07:42;29.10;98.00
18252;DHT22;26917;52.328;20.878;2022-08-01T11:10:22;29.20;92.00
18252;DHT22;26917;52.328;20.878;2022-08-01T11:12:56;29.20;91.20
18252;DHT22;26917;52.328;20.878;2022-08-01T11:15:30;29.10;95.60
18252;DHT22;26917;52.328;20.878;2022-08-01T11:18:29;29.50;96.20
18252;DHT22;26917;52.328;20.878;2022-08-01T11:21:12;29.60;94.90
18252;DHT22;26917;52.328;20.878;2022-08-01T11:24:01;28.70;91.50
18252;DHT22;26917;52.328;20.878;2022-08-01T11:26:29;27.60;91.50
18252;DHT22;26917;52.328;20.878;2022-08-01T11:29:17;26.80;94.40
18252;DHT22;26917;52.328;20.878;2022-08-01T11:31:51;26.20;94.30
18252;DHT22;26917;52.328;20.878;2022-08-01T11:34:53;25.80;97.60
18252;DHT22;26917;52.328;20.878;2022-08-01T11:37:23;25.20;97.00
18252;DHT22;26917;52.328;20.878;2022-08-01T11:40:24;24.60;94.70
18252;DHT22;26917;52.328;20.878;2022-08-01T11:43:17;24.10;96.50
18252;DHT22;26917;52.328;20.878;2022-08-01T11:45:52;23.80;99.60
18252;DHT22;26917;52.328;20.878;2022-08-01T11:48:25;23.50;97.70
18252;DHT22;26917;52.328;20.878;2022-08-01T11:50:58;23.50;99.10
18252;DHT22;26917;52.328;20.878;2022-08-01T11:53:29;23.50;98.00
18252;DHT22;26917;52.328;20.878;2022-08-01T11:55:59;23.40;98.20
18252;DHT22;26917;52.328;20.878;2022-08-01T11:58:28;23.40;96.70
18252;DHT22;26917;52.328;20.878;2022-08-01T12:00:58;23.40;97.00
18252;DHT22;26917;52.328;20.878;2022-08-01T12:03:28;23.40;97.20
18252;DHT22;26917;52.328;20.878;2022-08-01T12:06:00;23.50;96.30
18252;DHT22;26917;52.328;20.878;2022-08-01T12:08:31;23.50;99.00
18252;DHT22;26917;52.328;20.878;2022-08-01T12:11:03;23.40;98.20
18252;DHT22;26917;52.328;20.878;2022-08-01T12:13:40;23.40;99.90
18252;DHT22;26917;52.328;20.878;2022-08-01T12:16:11;23.40;99.90
18252;DHT22;26917;52.328;20.878;2022-08-01T12:18:41;23.30;99.90
18252;DHT22;26917;52.328;20.878;2022-08-01T12:21:10;23.20;99.90
18252;DHT22;26917;52.328;20.878;2022-08-01T12:23:38;23.20;99.30
18252;DHT22;26917;52.328;20.878;2022-08-01T12:26:07;23.40;99.90
18252;DHT22;26917;52.328;20.878;2022-08-01T12:28:55;23.40;99.90
18252;DHT22;26917;52.328;20.878;2022-08-01T12:31:32;23.50;99.90
18252;DHT22;26917;52.328;20.878;2022-08-01T12:34:25;23.60;99.90
18252;DHT22;26917;52.328;20.878;2022-08-01T12:36:55;23.70;99.90
18252;DHT22;26917;52.328;20.878;2022-08-01T12:39:30;23.80;98.30
18252;DHT22;26917;52.328;20.878;2022-08-01T12:42:00;24.00;99.90
18252;DHT22;26917;52.328;20.878;2022-08-01T12:44:30;24.00;99.90
18252;DHT22;26917;52.328;20.878;2022-08-01T12:47:00;24.00;99.90
18252;DHT22;26917;52.328;20.878;2022-08-01T12:49:32;24.00;99.40
18252;DHT22;26917;52.328;20.878;2022-08-01T12:52:01;24.00;97.70
18252;DHT22;26917;52.328;20.878;2022-08-01T12:54:30;23.90;97.60
18252;DHT22;26917;52.328;20.878;2022-08-01T12:56:58;24.00;98.60
18252;DHT22;26917;52.328;20.878;2022-08-01T12:59:27;23.90;99.10
18252;DHT22;26917;52.328;20.878;2022-08-01T13:01:56;23.90;98.40
18252;DHT22;26917;52.328;20.878;2022-08-01T13:04:26;23.90;95.80
18252;DHT22;26917;52.328;20.878;2022-08-01T13:06:55;23.90;97.60
18252;DHT22;26917;52.328;20.878;2022-08-01T13:09:24;23.90;97.40
18252;DHT22;26917;52.328;20.878;2022-08-01T13:11:53;24.00;97.60
18252;DHT22;26917;52.328;20.878;2022-08-01T13:14:30;24.00;95.50
18252;DHT22;26917;52.328;20.878;2022-08-01T13:16:59;24.10;96.50
18252;DHT22;26917;52.328;20.878;2022-08-01T13:19:44;24.10;96.40
18252;DHT22;26917;52.328;20.878;2022-08-01T13:22:14;24.20;95.00
18252;DHT22;26917;52.328;20.878;2022-08-01T13:24:42;24.10;95.60
18252;DHT22;26917;52.328;20.878;2022-08-01T13:27:20;24.10;95.10
18252;DHT22;26917;52.328;20.878;2022-08-01T13:29:50;24.10;95.70
18252;DHT22;26917;52.328;20.878;2022-08-01T13:32:21;24.10;94.50
18252;DHT22;26917;52.328;20.878;2022-08-01T13:35:02;24.00;95.30
18252;DHT22;26917;52.328;20.878;2022-08-01T13:37:32;24.00;95.70
18252;DHT22;26917;52.328;20.878;2022-08-01T13:40:03;24.00;97.10
18252;DHT22;26917;52.328;20.878;2022-08-01T13:42:32;24.10;98.20
18252;DHT22;26917;52.328;20.878;2022-08-01T13:45:01;24.10;99.30
18252;DHT22;26917;52.328;20.878;2022-08-01T13:47:30;24.10;99.90
18252;DHT22;26917;52.328;20.878;2022-08-01T13:49:58;24.10;99.20
18252;DHT22;26917;52.328;20.878;2022-08-01T13:52:33;24.10;96.80
18252;DHT22;26917;52.328;20.878;2022-08-01T13:55:01;24.20;98.20
18252;DHT22;26917;52.328;20.878;2022-08-01T13:57:37;24.20;98.00
18252;DHT22;26917;52.328;20.878;2022-08-01T14:00:08;24.20;96.90
18252;DHT22;26917;52.328;20.878;2022-08-01T14:02:39;24.30;96.50
18252;DHT22;26917;52.328;20.878;2022-08-01T14:05:08;24.30;99.00
18252;DHT22;26917;52.328;20.878;2022-08-01T14:07:53;24.30;99.20
18252;DHT22;26917;52.328;20.878;2022-08-01T14:10:22;24.40;95.10
18252;DHT22;26917;52.328;20.878;2022-08-01T14:12:51;24.40;96.10
18252;DHT22;26917;52.328;20.878;2022-08-01T14:15:23;24.50;96.00
18252;DHT22;26917;52.328;20.878;2022-08-01T14:18:06;24.50;97.20
18252;DHT22;26917;52.328;20.878;2022-08-01T14:20:38;24.50;96.70
18252;DHT22;26917;52.328;20.878;2022-08-01T14:23:08;24.60;97.40
18252;DHT22;26917;52.328;20.878;2022-08-01T14:25:38;24.60;95.50
18252;DHT22;26917;52.328;20.878;2022-08-01T14:28:26;24.60;94.70
18252;DHT22;26917;52.328;20.878;2022-08-01T14:30:57;24.60;96.50
18252;DHT22;26917;52.328;20.878;2022-08-01T14:33:26;24.60;96.20
18252;DHT22;26917;52.328;20.878;2022-08-01T14:35:55;24.60;97.10
18252;DHT22;26917;52.328;20.878;2022-08-01T14:38:45;24.50;94.20
18252;DHT22;26917;52.328;20.878;2022-08-01T14:41:14;24.70;95.70
18252;DHT22;26917;52.328;20.878;2022-08-01T14:43:42;24.70;94.70
18252;DHT22;26917;52.328;20.878;2022-08-01T14:46:11;24.80;94.10
18252;DHT22;26917;52.328;20.878;2022-08-01T14:48:40;24.80;94.90
18252;DHT22;26917;52.328;20.878;2022-08-01T14:51:08;24.80;98.10
18252;DHT22;26917;52.328;20.878;2022-08-01T14:53:37;24.80;99.90
18252;DHT22;26917;52.328;20.878;2022-08-01T14:56:21;24.80;96.90
18252;DHT22;26917;52.328;20.878;2022-08-01T14:58:49;24.80;95.40
18252;DHT22;26917;52.328;20.878;2022-08-01T15:01:21;24.80;94.20
18252;DHT22;26917;52.328;20.878;2022-08-01T15:03:49;24.70;95.30
18252;DHT22;26917;52.328;20.878;2022-08-01T15:06:18;24.60;94.10
18252;DHT22;26917;52.328;20.878;2022-08-01T15:08:46;24.60;95.30
18252;DHT22;26917;52.328;20.878;2022-08-01T15:11:16;24.60;94.90
18252;DHT22;26917;52.328;20.878;2022-08-01T15:13:44;24.60;97.00
18252;DHT22;26917;52.328;20.878;2022-08-01T15:16:33;24.50;95.30
18252;DHT22;26917;52.328;20.878;2022-08-01T15:19:02;24.50;96.60
18252;DHT22;26917;52.328;20.878;2022-08-01T15:21:30;24.40;97.90
18252;DHT22;26917;52.328;20.878;2022-08-01T15:24:08;24.40;99.90
18252;DHT22;26917;52.328;20.878;2022-08-01T15:26:47;24.40;99.90
18252;DHT22;26917;52.328;20.878;2022-08-01T15:29:17;24.40;99.90
18252;DHT22;26917;52.328;20.878;2022-08-01T15:31:45;24.40;99.90
18252;DHT22;26917;52.328;20.878;2022-08-01T15:34:14;24.40;99.90
18252;DHT22;26917;52.328;20.878;2022-08-01T15:36:43;24.30;99.90
18252;DHT22;26917;52.328;20.878;2022-08-01T15:39:14;24.10;97.60
18252;DHT22;26917;52.328;20.878;2022-08-01T15:41:44;24.10;99.90
18252;DHT22;26917;52.328;20.878;2022-08-01T15:44:13;24.10;99.90
18252;DHT22;26917;52.328;20.878;2022-08-01T15:46:41;24.00;99.20
18252;DHT22;26917;52.328;20.878;2022-08-01T15:49:10;24.00;99.70
18252;DHT22;26917;52.328;20.878;2022-08-01T15:51:39;24.00;99.90
18252;DHT22;26917;52.328;20.878;2022-08-01T15:54:07;24.00;99.90
18252;DHT22;26917;52.328;20.878;2022-08-01T15:56:40;23.90;99.90
18252;DHT22;26917;52.328;20.878;2022-08-01T16:02:14;23.60;96.70
18252;DHT22;26917;52.328;20.878;2022-08-01T16:04:43;23.50;98.70
18252;DHT22;26917;52.328;20.878;2022-08-01T16:07:11;23.40;98.80
18252;DHT22;26917;52.328;20.878;2022-08-01T16:09:40;23.30;99.90
18252;DHT22;26917;52.328;20.878;2022-08-01T16:12:08;23.20;99.90
18252;DHT22;26917;52.328;20.878;2022-08-01T16:14:37;23.00;99.90